sensor_id;sensor_type;location;lat;lon;timestamp;temperature;humidity
35680;DHT22;21803;53.586;10.040;2024-01-30T00:02:09;19.40;41.80
35680;DHT22;21803;53.586;10.040;2024-01-30T00:04:35;19.20;41.70
35680;DHT22;21803;53.586;10.040;2024-01-30T00:07:00;19.20;41.80
35680;DHT22;21803;53.586;10.040;2024-01-30T00:09:26;19.20;41.70
35680;DHT22;21803;53.586;10.040;2024-01-30T00:11:51;19.20;41.70
35680;DHT22;21803;53.586;10.040;2024-01-30T00:14:17;19.20;41.70
35680;DHT22;21803;53.586;10.040;2024-01-30T00:16:42;19.20;41.70
35680;DHT22;21803;53.586;10.040;2024-01-30T00:19:08;19.20;41.70
35680;DHT22;21803;53.586;10.040;2024-01-30T00:21:33;19.20;41.70
35680;DHT22;21803;53.586;10.040;2024-01-30T00:23:59;19.20;41.70
35680;DHT22;21803;53.586;10.040;2024-01-30T00:26:25;19.20;41.70
35680;DHT22;21803;53.586;10.040;2024-01-30T00:28:50;19.20;41.70
35680;DHT22;21803;53.586;10.040;2024-01-30T00:31:16;19.20;41.20
35680;DHT22;21803;53.586;10.040;2024-01-30T00:33:42;19.20;41.70
35680;DHT22;21803;53.586;10.040;2024-01-30T00:36:08;19.20;41.70
35680;DHT22;21803;53.586;10.040;2024-01-30T00:38:34;19.20;41.80
35680;DHT22;21803;53.586;10.040;2024-01-30T00:41:00;19.20;41.70
35680;DHT22;21803;53.586;10.040;2024-01-30T00:43:27;19.20;41.70
35680;DHT22;21803;53.586;10.040;2024-01-30T00:45:53;19.20;41.70
35680;DHT22;21803;53.586;10.040;2024-01-30T00:48:19;19.20;41.70
35680;DHT22;21803;53.586;10.040;2024-01-30T00:50:44;19.20;41.70
35680;DHT22;21803;53.586;10.040;2024-01-30T00:53:10;19.20;41.70
35680;DHT22;21803;53.586;10.040;2024-01-30T00:55:36;19.20;41.70
35680;DHT22;21803;53.586;10.040;2024-01-30T00:58:02;19.20;41.80
35680;DHT22;21803;53.586;10.040;2024-01-30T01:00:28;19.20;41.80
35680;DHT22;21803;53.586;10.040;2024-01-30T01:03:01;19.20;41.80
35680;DHT22;21803;53.586;10.040;2024-01-30T01:05:26;19.20;41.70
35680;DHT22;21803;53.586;10.040;2024-01-30T01:07:52;19.20;41.80
35680;DHT22;21803;53.586;10.040;2024-01-30T01:10:18;19.30;41.80
35680;DHT22;21803;53.586;10.040;2024-01-30T01:12:44;19.20;41.80
35680;DHT22;21803;53.586;10.040;2024-01-30T01:15:10;19.20;41.70
35680;DHT22;21803;53.586;10.040;2024-01-30T01:17:39;19.20;41.70
35680;DHT22;21803;53.586;10.040;2024-01-30T01:20:06;19.10;41.20
35680;DHT22;21803;53.586;10.040;2024-01-30T01:22:32;19.20;41.70
35680;DHT22;21803;53.586;10.040;2024-01-30T01:24:59;19.20;41.70
35680;DHT22;21803;53.586;10.040;2024-01-30T01:27:25;19.20;41.70
35680;DHT22;21803;53.586;10.040;2024-01-30T01:29:51;19.20;41.80
35680;DHT22;21803;53.586;10.040;2024-01-30T01:32:17;19.20;41.70
35680;DHT22;21803;53.586;10.040;2024-01-30T01:34:42;19.10;41.70
35680;DHT22;21803;53.586;10.040;2024-01-30T01:37:08;19.20;41.70
35680;DHT22;21803;53.586;10.040;2024-01-30T01:39:33;19.20;41.80
35680;DHT22;21803;53.586;10.040;2024-01-30T01:41:59;19.20;41.70
35680;DHT22;21803;53.586;10.040;2024-01-30T01:44:24;19.10;41.70
35680;DHT22;21803;53.586;10.040;2024-01-30T01:46:51;19.20;41.70
35680;DHT22;21803;53.586;10.040;2024-01-30T01:49:17;19.20;41.80
35680;DHT22;21803;53.586;10.040;2024-01-30T01:51:45;19.10;41.70
35680;DHT22;21803;53.586;10.040;2024-01-30T01:54:11;19.10;41.70
35680;DHT22;21803;53.586;10.040;2024-01-30T01:56:37;19.20;41.70
35680;DHT22;21803;53.586;10.040;2024-01-30T01:59:07;19.10;41.70
35680;DHT22;21803;53.586;10.040;2024-01-30T02:01:34;19.10;41.70
35680;DHT22;21803;53.586;10.040;2024-01-30T02:04:01;19.20;41.70
35680;DHT22;21803;53.586;10.040;2024-01-30T02:06:27;19.10;41.70
35680;DHT22;21803;53.586;10.040;2024-01-30T02:08:53;19.20;41.70
35680;DHT22;21803;53.586;10.040;2024-01-30T02:11:22;19.10;40.90
35680;DHT22;21803;53.586;10.040;2024-01-30T02:13:48;19.10;41.00
35680;DHT22;21803;53.586;10.040;2024-01-30T02:16:14;19.10;41.00
35680;DHT22;21803;53.586;10.040;2024-01-30T02:21:15;19.20;41.00
35680;DHT22;21803;53.586;10.040;2024-01-30T02:23:43;19.10;41.00
35680;DHT22;21803;53.586;10.040;2024-01-30T02:26:08;19.10;41.00
35680;DHT22;21803;53.586;10.040;2024-01-30T02:28:34;19.10;41.00
35680;DHT22;21803;53.586;10.040;2024-01-30T02:40:43;19.10;41.00
35680;DHT22;21803;53.586;10.040;2024-01-30T02:43:08;19.10;41.00
35680;DHT22;21803;53.586;10.040;2024-01-30T02:52:52;19.10;41.00
35680;DHT22;21803;53.586;10.040;2024-01-30T02:57:44;19.10;41.00
35680;DHT22;21803;53.586;10.040;2024-01-30T03:02:36;19.10;41.00
35680;DHT22;21803;53.586;10.040;2024-01-30T03:05:02;19.10;41.00
35680;DHT22;21803;53.586;10.040;2024-01-30T03:07:29;19.10;41.00
35680;DHT22;21803;53.586;10.040;2024-01-30T03:09:54;19.10;41.10
35680;DHT22;21803;53.586;10.040;2024-01-30T03:12:21;19.10;41.10
35680;DHT22;21803;53.586;10.040;2024-01-30T03:14:46;19.10;41.10
35680;DHT22;21803;53.586;10.040;2024-01-30T03:24:29;19.10;41.00
35680;DHT22;21803;53.586;10.040;2024-01-30T03:26:55;19.10;41.00
35680;DHT22;21803;53.586;10.040;2024-01-30T03:48:49;19.10;41.10
35680;DHT22;21803;53.586;10.040;2024-01-30T03:53:44;19.10;41.10
35680;DHT22;21803;53.586;10.040;2024-01-30T03:58:39;19.00;41.10
35680;DHT22;21803;53.586;10.040;2024-01-30T04:01:04;19.10;41.10
35680;DHT22;21803;53.586;10.040;2024-01-30T04:05:56;19.10;41.10
35680;DHT22;21803;53.586;10.040;2024-01-30T04:18:05;19.10;41.10
35680;DHT22;21803;53.586;10.040;2024-01-30T04:30:15;19.00;41.10
35680;DHT22;21803;53.586;10.040;2024-01-30T04:32:41;19.00;41.10
35680;DHT22;21803;53.586;10.040;2024-01-30T04:37:32;19.00;41.10
35680;DHT22;21803;53.586;10.040;2024-01-30T04:39:58;19.00;41.10
35680;DHT22;21803;53.586;10.040;2024-01-30T04:44:50;19.00;41.10
35680;DHT22;21803;53.586;10.040;2024-01-30T04:49:42;19.80;41.50
35680;DHT22;21803;53.586;10.040;2024-01-30T04:52:08;19.00;41.10
35680;DHT22;21803;53.586;10.040;2024-01-30T04:54:37;19.00;41.10
35680;DHT22;21803;53.586;10.040;2024-01-30T04:57:02;19.00;41.10
35680;DHT22;21803;53.586;10.040;2024-01-30T04:59:28;19.00;41.10
35680;DHT22;21803;53.586;10.040;2024-01-30T05:01:54;19.10;41.20
35680;DHT22;21803;53.586;10.040;2024-01-30T05:04:19;19.00;41.10
35680;DHT22;21803;53.586;10.040;2024-01-30T05:11:41;19.00;41.10
35680;DHT22;21803;53.586;10.040;2024-01-30T05:16:32;19.00;41.10
35680;DHT22;21803;53.586;10.040;2024-01-30T05:18:58;19.00;41.10
35680;DHT22;21803;53.586;10.040;2024-01-30T05:21:24;19.00;41.10
35680;DHT22;21803;53.586;10.040;2024-01-30T05:28:42;19.00;41.10
35680;DHT22;21803;53.586;10.040;2024-01-30T05:33:36;19.00;41.10
35680;DHT22;21803;53.586;10.040;2024-01-30T06:02:51;19.00;41.20
35680;DHT22;21803;53.586;10.040;2024-01-30T06:05:16;19.00;41.20
35680;DHT22;21803;53.586;10.040;2024-01-30T06:07:42;19.00;41.20
35680;DHT22;21803;53.586;10.040;2024-01-30T06:10:08;19.00;41.20
35680;DHT22;21803;53.586;10.040;2024-01-30T06:12:34;19.00;41.20
35680;DHT22;21803;53.586;10.040;2024-01-30T06:17:26;19.00;41.20
35680;DHT22;21803;53.586;10.040;2024-01-30T06:19:51;19.00;41.20
35680;DHT22;21803;53.586;10.040;2024-01-30T06:24:43;19.00;41.30
35680;DHT22;21803;53.586;10.040;2024-01-30T06:27:10;18.90;41.20
35680;DHT22;21803;53.586;10.040;2024-01-30T06:29:36;18.90;41.20
35680;DHT22;21803;53.586;10.040;2024-01-30T06:46:38;19.00;41.30
35680;DHT22;21803;53.586;10.040;2024-01-30T06:53:56;19.00;41.40
35680;DHT22;21803;53.586;10.040;2024-01-30T06:56:21;19.00;41.30
35680;DHT22;21803;53.586;10.040;2024-01-30T06:58:48;19.00;41.40
35680;DHT22;21803;53.586;10.040;2024-01-30T07:23:15;19.00;41.40
35680;DHT22;21803;53.586;10.040;2024-01-30T07:25:43;19.00;41.40
35680;DHT22;21803;53.586;10.040;2024-01-30T07:30:36;19.00;41.40
35680;DHT22;21803;53.586;10.040;2024-01-30T07:33:02;19.00;41.40
35680;DHT22;21803;53.586;10.040;2024-01-30T07:35:27;18.90;41.40
35680;DHT22;21803;53.586;10.040;2024-01-30T07:50:03;18.90;41.40
35680;DHT22;21803;53.586;10.040;2024-01-30T07:52:29;19.00;41.50
35680;DHT22;21803;53.586;10.040;2024-01-30T07:57:51;18.90;41.40
35680;DHT22;21803;53.586;10.040;2024-01-30T08:05:10;19.00;41.40
35680;DHT22;21803;53.586;10.040;2024-01-30T08:07:37;18.90;41.40
35680;DHT22;21803;53.586;10.040;2024-01-30T08:12:28;19.00;41.50
35680;DHT22;21803;53.586;10.040;2024-01-30T08:14:54;19.00;42.10
35680;DHT22;21803;53.586;10.040;2024-01-30T08:17:19;18.90;42.10
35680;DHT22;21803;53.586;10.040;2024-01-30T08:19:45;19.00;42.10
35680;DHT22;21803;53.586;10.040;2024-01-30T08:22:12;19.00;42.20
35680;DHT22;21803;53.586;10.040;2024-01-30T08:24:38;18.90;42.10
35680;DHT22;21803;53.586;10.040;2024-01-30T08:27:06;19.00;42.20
35680;DHT22;21803;53.586;10.040;2024-01-30T08:29:35;19.00;42.20
35680;DHT22;21803;53.586;10.040;2024-01-30T08:32:00;19.00;42.20
35680;DHT22;21803;53.586;10.040;2024-01-30T08:34:26;19.00;42.20
35680;DHT22;21803;53.586;10.040;2024-01-30T08:36:52;19.00;42.20
35680;DHT22;21803;53.586;10.040;2024-01-30T08:39:18;19.00;42.20
35680;DHT22;21803;53.586;10.040;2024-01-30T08:41:43;19.00;42.20
35680;DHT22;21803;53.586;10.040;2024-01-30T08:44:09;19.00;42.20
35680;DHT22;21803;53.586;10.040;2024-01-30T08:46:36;19.00;42.20
35680;DHT22;21803;53.586;10.040;2024-01-30T08:49:02;19.00;42.20
35680;DHT22;21803;53.586;10.040;2024-01-30T08:51:28;19.00;42.20
35680;DHT22;21803;53.586;10.040;2024-01-30T08:53:53;19.00;42.20
35680;DHT22;21803;53.586;10.040;2024-01-30T08:56:19;19.00;42.20
35680;DHT22;21803;53.586;10.040;2024-01-30T08:58:44;19.00;42.20
35680;DHT22;21803;53.586;10.040;2024-01-30T09:01:10;19.00;42.20
35680;DHT22;21803;53.586;10.040;2024-01-30T09:03:36;19.00;42.20
35680;DHT22;21803;53.586;10.040;2024-01-30T09:06:10;19.00;42.20
35680;DHT22;21803;53.586;10.040;2024-01-30T09:08:37;19.00;42.20
35680;DHT22;21803;53.586;10.040;2024-01-30T09:11:12;19.00;42.30
35680;DHT22;21803;53.586;10.040;2024-01-30T09:13:38;19.00;42.20
35680;DHT22;21803;53.586;10.040;2024-01-30T09:16:04;19.00;42.20
35680;DHT22;21803;53.586;10.040;2024-01-30T09:18:29;19.00;42.20
35680;DHT22;21803;53.586;10.040;2024-01-30T09:20:55;19.00;42.20
35680;DHT22;21803;53.586;10.040;2024-01-30T09:23:20;19.00;42.20
35680;DHT22;21803;53.586;10.040;2024-01-30T09:25:47;19.00;42.90
35680;DHT22;21803;53.586;10.040;2024-01-30T09:28:12;19.00;42.20
35680;DHT22;21803;53.586;10.040;2024-01-30T09:30:38;19.00;41.70
35680;DHT22;21803;53.586;10.040;2024-01-30T09:33:04;19.00;42.30
35680;DHT22;21803;53.586;10.040;2024-01-30T09:35:30;19.00;42.30
35680;DHT22;21803;53.586;10.040;2024-01-30T09:37:56;19.00;42.30
35680;DHT22;21803;53.586;10.040;2024-01-30T09:40:23;19.00;42.30
35680;DHT22;21803;53.586;10.040;2024-01-30T09:42:50;19.00;42.30
35680;DHT22;21803;53.586;10.040;2024-01-30T09:45:18;19.00;42.30
35680;DHT22;21803;53.586;10.040;2024-01-30T09:47:44;19.00;42.30
35680;DHT22;21803;53.586;10.040;2024-01-30T09:50:12;19.00;42.30
35680;DHT22;21803;53.586;10.040;2024-01-30T09:52:38;19.00;42.30
35680;DHT22;21803;53.586;10.040;2024-01-30T09:55:04;19.00;42.30
35680;DHT22;21803;53.586;10.040;2024-01-30T09:57:30;19.00;42.30
35680;DHT22;21803;53.586;10.040;2024-01-30T09:59:56;19.10;42.40
35680;DHT22;21803;53.586;10.040;2024-01-30T10:02:22;19.10;42.40
35680;DHT22;21803;53.586;10.040;2024-01-30T10:04:50;19.00;42.40
35680;DHT22;21803;53.586;10.040;2024-01-30T10:07:16;19.10;42.40
35680;DHT22;21803;53.586;10.040;2024-01-30T10:09:42;19.00;42.40
35680;DHT22;21803;53.586;10.040;2024-01-30T10:12:08;19.00;42.30
35680;DHT22;21803;53.586;10.040;2024-01-30T10:14:40;19.00;42.30
35680;DHT22;21803;53.586;10.040;2024-01-30T10:17:08;19.00;42.30
35680;DHT22;21803;53.586;10.040;2024-01-30T10:19:34;19.00;42.40
35680;DHT22;21803;53.586;10.040;2024-01-30T10:22:00;19.00;42.40
35680;DHT22;21803;53.586;10.040;2024-01-30T10:24:26;19.00;42.40
35680;DHT22;21803;53.586;10.040;2024-01-30T10:26:53;19.00;42.40
35680;DHT22;21803;53.586;10.040;2024-01-30T10:29:18;19.00;42.40
35680;DHT22;21803;53.586;10.040;2024-01-30T10:31:44;19.00;42.40
35680;DHT22;21803;53.586;10.040;2024-01-30T10:34:10;19.10;42.50
35680;DHT22;21803;53.586;10.040;2024-01-30T10:36:41;19.00;42.40
35680;DHT22;21803;53.586;10.040;2024-01-30T10:39:08;19.10;42.40
35680;DHT22;21803;53.586;10.040;2024-01-30T10:41:44;19.00;42.40
35680;DHT22;21803;53.586;10.040;2024-01-30T10:44:10;19.00;42.50
35680;DHT22;21803;53.586;10.040;2024-01-30T10:46:38;19.00;42.50
35680;DHT22;21803;53.586;10.040;2024-01-30T10:49:04;19.00;42.40
35680;DHT22;21803;53.586;10.040;2024-01-30T10:51:32;19.00;42.40
35680;DHT22;21803;53.586;10.040;2024-01-30T10:54:00;19.10;42.50
35680;DHT22;21803;53.586;10.040;2024-01-30T10:56:26;19.00;42.50
35680;DHT22;21803;53.586;10.040;2024-01-30T10:58:53;19.00;42.50
35680;DHT22;21803;53.586;10.040;2024-01-30T11:01:20;19.00;42.50
35680;DHT22;21803;53.586;10.040;2024-01-30T11:03:49;19.10;42.00
35680;DHT22;21803;53.586;10.040;2024-01-30T11:06:15;19.00;42.50
35680;DHT22;21803;53.586;10.040;2024-01-30T11:08:44;19.00;42.50
35680;DHT22;21803;53.586;10.040;2024-01-30T11:11:10;18.80;42.40
35680;DHT22;21803;53.586;10.040;2024-01-30T11:13:36;19.00;42.50
35680;DHT22;21803;53.586;10.040;2024-01-30T11:16:03;19.10;42.50
35680;DHT22;21803;53.586;10.040;2024-01-30T11:18:33;19.00;42.50
35680;DHT22;21803;53.586;10.040;2024-01-30T11:21:00;19.00;42.50
35680;DHT22;21803;53.586;10.040;2024-01-30T11:23:28;19.10;42.60
35680;DHT22;21803;53.586;10.040;2024-01-30T11:25:54;19.40;42.70
35680;DHT22;21803;53.586;10.040;2024-01-30T11:28:21;19.00;42.50
35680;DHT22;21803;53.586;10.040;2024-01-30T11:30:47;19.00;42.00
35680;DHT22;21803;53.586;10.040;2024-01-30T11:33:28;19.10;42.60
35680;DHT22;21803;53.586;10.040;2024-01-30T11:35:57;19.00;42.60
35680;DHT22;21803;53.586;10.040;2024-01-30T11:38:26;19.30;42.70
35680;DHT22;21803;53.586;10.040;2024-01-30T11:40:51;19.00;42.10
35680;DHT22;21803;53.586;10.040;2024-01-30T11:43:18;19.00;42.70
35680;DHT22;21803;53.586;10.040;2024-01-30T11:45:44;19.10;42.70
35680;DHT22;21803;53.586;10.040;2024-01-30T11:48:11;19.00;42.60
35680;DHT22;21803;53.586;10.040;2024-01-30T11:50:38;19.00;42.20
35680;DHT22;21803;53.586;10.040;2024-01-30T11:53:04;19.00;42.70
35680;DHT22;21803;53.586;10.040;2024-01-30T11:55:30;19.00;42.70
35680;DHT22;21803;53.586;10.040;2024-01-30T11:57:57;19.00;42.70
35680;DHT22;21803;53.586;10.040;2024-01-30T12:00:23;19.00;42.70
35680;DHT22;21803;53.586;10.040;2024-01-30T12:02:52;19.00;42.80
35680;DHT22;21803;53.586;10.040;2024-01-30T12:05:22;19.00;42.80
35680;DHT22;21803;53.586;10.040;2024-01-30T12:07:48;19.00;42.80
35680;DHT22;21803;53.586;10.040;2024-01-30T12:10:14;19.00;42.80
35680;DHT22;21803;53.586;10.040;2024-01-30T12:12:41;19.00;42.80
35680;DHT22;21803;53.586;10.040;2024-01-30T12:15:08;19.00;42.80
35680;DHT22;21803;53.586;10.040;2024-01-30T12:17:34;19.00;42.80
35680;DHT22;21803;53.586;10.040;2024-01-30T12:20:13;19.00;43.50
35680;DHT22;21803;53.586;10.040;2024-01-30T12:22:41;19.00;42.90
35680;DHT22;21803;53.586;10.040;2024-01-30T12:25:14;19.00;42.90
35680;DHT22;21803;53.586;10.040;2024-01-30T12:27:43;19.00;42.90
35680;DHT22;21803;53.586;10.040;2024-01-30T12:30:10;19.00;42.90
35680;DHT22;21803;53.586;10.040;2024-01-30T12:32:44;19.00;43.00
35680;DHT22;21803;53.586;10.040;2024-01-30T12:35:17;19.00;43.00
35680;DHT22;21803;53.586;10.040;2024-01-30T12:37:44;19.00;43.00
35680;DHT22;21803;53.586;10.040;2024-01-30T12:40:11;19.00;43.10
35680;DHT22;21803;53.586;10.040;2024-01-30T12:42:39;19.00;43.10
35680;DHT22;21803;53.586;10.040;2024-01-30T12:45:05;19.00;43.10
35680;DHT22;21803;53.586;10.040;2024-01-30T12:47:31;19.00;43.10
35680;DHT22;21803;53.586;10.040;2024-01-30T12:49:57;19.00;43.10
35680;DHT22;21803;53.586;10.040;2024-01-30T12:52:23;19.00;43.20
35680;DHT22;21803;53.586;10.040;2024-01-30T12:54:49;19.00;43.20
35680;DHT22;21803;53.586;10.040;2024-01-30T12:57:15;19.00;43.20
35680;DHT22;21803;53.586;10.040;2024-01-30T12:59:41;19.00;42.70
35680;DHT22;21803;53.586;10.040;2024-01-30T13:02:07;19.00;43.30
35680;DHT22;21803;53.586;10.040;2024-01-30T13:04:32;19.00;42.80
35680;DHT22;21803;53.586;10.040;2024-01-30T13:06:58;19.00;43.30
35680;DHT22;21803;53.586;10.040;2024-01-30T13:09:25;19.00;43.30
35680;DHT22;21803;53.586;10.040;2024-01-30T13:11:51;19.00;43.40
35680;DHT22;21803;53.586;10.040;2024-01-30T13:14:17;19.00;43.40
35680;DHT22;21803;53.586;10.040;2024-01-30T13:16:43;19.00;43.40
35680;DHT22;21803;53.586;10.040;2024-01-30T13:19:08;19.00;43.40
35680;DHT22;21803;53.586;10.040;2024-01-30T13:21:34;19.00;43.40
35680;DHT22;21803;53.586;10.040;2024-01-30T13:23:59;19.00;43.40
35680;DHT22;21803;53.586;10.040;2024-01-30T13:26:25;19.00;43.50
35680;DHT22;21803;53.586;10.040;2024-01-30T13:28:51;19.00;43.50
35680;DHT22;21803;53.586;10.040;2024-01-30T13:31:16;19.00;43.50
35680;DHT22;21803;53.586;10.040;2024-01-30T13:33:42;19.00;43.50
35680;DHT22;21803;53.586;10.040;2024-01-30T13:36:10;19.00;43.60
35680;DHT22;21803;53.586;10.040;2024-01-30T13:38:35;19.00;43.50
35680;DHT22;21803;53.586;10.040;2024-01-30T13:41:01;19.00;43.60
35680;DHT22;21803;53.586;10.040;2024-01-30T13:43:26;19.00;43.70
35680;DHT22;21803;53.586;10.040;2024-01-30T13:45:52;19.00;43.70
35680;DHT22;21803;53.586;10.040;2024-01-30T13:48:18;19.00;43.70
35680;DHT22;21803;53.586;10.040;2024-01-30T13:50:44;18.90;43.10
35680;DHT22;21803;53.586;10.040;2024-01-30T13:53:10;19.00;43.70
35680;DHT22;21803;53.586;10.040;2024-01-30T13:55:35;19.00;43.70
35680;DHT22;21803;53.586;10.040;2024-01-30T13:58:01;19.00;43.80
35680;DHT22;21803;53.586;10.040;2024-01-30T14:00:27;18.00;43.50
35680;DHT22;21803;53.586;10.040;2024-01-30T14:02:53;19.00;44.10
35680;DHT22;21803;53.586;10.040;2024-01-30T14:05:23;19.00;44.10
35680;DHT22;21803;53.586;10.040;2024-01-30T14:07:48;19.00;43.50
35680;DHT22;21803;53.586;10.040;2024-01-30T14:10:15;19.00;44.00
35680;DHT22;21803;53.586;10.040;2024-01-30T14:12:42;19.00;44.00
35680;DHT22;21803;53.586;10.040;2024-01-30T14:15:08;19.00;43.30
35680;DHT22;21803;53.586;10.040;2024-01-30T14:17:35;19.00;43.30
35680;DHT22;21803;53.586;10.040;2024-01-30T14:20:02;19.00;43.30
35680;DHT22;21803;53.586;10.040;2024-01-30T14:24:54;19.00;43.30
35680;DHT22;21803;53.586;10.040;2024-01-30T14:27:21;19.00;43.30
35680;DHT22;21803;53.586;10.040;2024-01-30T14:29:47;19.00;43.30
35680;DHT22;21803;53.586;10.040;2024-01-30T14:41:57;18.90;43.30
35680;DHT22;21803;53.586;10.040;2024-01-30T15:03:51;18.90;43.40
35680;DHT22;21803;53.586;10.040;2024-01-30T15:06:17;18.90;43.40
35680;DHT22;21803;53.586;10.040;2024-01-30T15:08:43;18.90;43.40
35680;DHT22;21803;53.586;10.040;2024-01-30T15:11:09;18.90;43.40
35680;DHT22;21803;53.586;10.040;2024-01-30T15:16:02;18.90;43.40
35680;DHT22;21803;53.586;10.040;2024-01-30T15:35:34;18.90;43.50
35680;DHT22;21803;53.586;10.040;2024-01-30T15:38:00;18.90;43.50
35680;DHT22;21803;53.586;10.040;2024-01-30T15:45:17;18.90;43.50
35680;DHT22;21803;53.586;10.040;2024-01-30T15:47:43;18.90;43.50
35680;DHT22;21803;53.586;10.040;2024-01-30T15:50:11;19.00;43.60
35680;DHT22;21803;53.586;10.040;2024-01-30T16:02:20;18.90;43.70
35680;DHT22;21803;53.586;10.040;2024-01-30T16:04:46;18.90;43.70
35680;DHT22;21803;53.586;10.040;2024-01-30T16:07:12;18.90;43.70
35680;DHT22;21803;53.586;10.040;2024-01-30T16:09:37;18.90;43.70
35680;DHT22;21803;53.586;10.040;2024-01-30T16:24:13;18.90;43.70
35680;DHT22;21803;53.586;10.040;2024-01-30T16:29:06;18.90;44.40
35680;DHT22;21803;53.586;10.040;2024-01-30T16:36:25;18.90;52.90
35680;DHT22;21803;53.586;10.040;2024-01-30T16:41:17;18.90;53.20
35680;DHT22;21803;53.586;10.040;2024-01-30T16:46:09;18.80;53.80
35680;DHT22;21803;53.586;10.040;2024-01-30T16:48:35;18.80;54.40
35680;DHT22;21803;53.586;10.040;2024-01-30T16:51:00;18.80;55.00
35680;DHT22;21803;53.586;10.040;2024-01-30T16:53:26;18.80;55.40
35680;DHT22;21803;53.586;10.040;2024-01-30T16:55:51;18.80;56.00
35680;DHT22;21803;53.586;10.040;2024-01-30T16:58:17;18.70;56.30
35680;DHT22;21803;53.586;10.040;2024-01-30T17:00:42;21.50;58.10
35680;DHT22;21803;53.586;10.040;2024-01-30T17:03:08;18.70;57.10
35680;DHT22;21803;53.586;10.040;2024-01-30T17:05:33;18.70;57.50
35680;DHT22;21803;53.586;10.040;2024-01-30T17:07:59;18.60;57.60
35680;DHT22;21803;53.586;10.040;2024-01-30T17:10:24;18.60;57.70
35680;DHT22;21803;53.586;10.040;2024-01-30T17:12:50;18.60;57.30
35680;DHT22;21803;53.586;10.040;2024-01-30T17:15:16;18.60;57.80
35680;DHT22;21803;53.586;10.040;2024-01-30T17:17:41;18.60;58.40
35680;DHT22;21803;53.586;10.040;2024-01-30T17:20:07;18.60;58.50
35680;DHT22;21803;53.586;10.040;2024-01-30T17:22:33;18.60;58.60
35680;DHT22;21803;53.586;10.040;2024-01-30T17:24:59;18.60;58.70
35680;DHT22;21803;53.586;10.040;2024-01-30T17:27:24;18.60;59.00
35680;DHT22;21803;53.586;10.040;2024-01-30T17:29:50;18.70;59.10
35680;DHT22;21803;53.586;10.040;2024-01-30T17:32:15;18.60;59.30
35680;DHT22;21803;53.586;10.040;2024-01-30T17:34:41;18.60;59.00
35680;DHT22;21803;53.586;10.040;2024-01-30T17:37:06;18.60;59.60
35680;DHT22;21803;53.586;10.040;2024-01-30T17:39:32;18.60;59.70
35680;DHT22;21803;53.586;10.040;2024-01-30T17:41:57;18.60;59.70
35680;DHT22;21803;53.586;10.040;2024-01-30T17:44:23;18.60;59.90
35680;DHT22;21803;53.586;10.040;2024-01-30T17:46:50;18.60;60.00
35680;DHT22;21803;53.586;10.040;2024-01-30T17:49:16;18.60;60.10
35680;DHT22;21803;53.586;10.040;2024-01-30T17:51:41;18.60;60.00
35680;DHT22;21803;53.586;10.040;2024-01-30T17:54:07;18.50;59.60
35680;DHT22;21803;53.586;10.040;2024-01-30T17:56:33;18.60;59.70
35680;DHT22;21803;53.586;10.040;2024-01-30T17:58:58;18.60;60.00
35680;DHT22;21803;53.586;10.040;2024-01-30T18:01:24;18.60;60.00
35680;DHT22;21803;53.586;10.040;2024-01-30T18:03:49;18.50;60.30
35680;DHT22;21803;53.586;10.040;2024-01-30T18:08:44;18.50;60.50
35680;DHT22;21803;53.586;10.040;2024-01-30T18:11:09;18.50;60.60
35680;DHT22;21803;53.586;10.040;2024-01-30T18:13:35;18.60;60.60
35680;DHT22;21803;53.586;10.040;2024-01-30T18:16:00;18.50;60.50
35680;DHT22;21803;53.586;10.040;2024-01-30T18:33:04;18.50;61.00
35680;DHT22;21803;53.586;10.040;2024-01-30T18:35:30;18.50;61.10
35680;DHT22;21803;53.586;10.040;2024-01-30T18:37:56;18.60;61.20
35680;DHT22;21803;53.586;10.040;2024-01-30T18:40:21;18.50;61.40
35680;DHT22;21803;53.586;10.040;2024-01-30T18:45:13;18.50;61.40
35680;DHT22;21803;53.586;10.040;2024-01-30T18:59:49;18.50;61.60
35680;DHT22;21803;53.586;10.040;2024-01-30T19:04:41;18.60;61.60
35680;DHT22;21803;53.586;10.040;2024-01-30T19:07:07;18.50;61.50
35680;DHT22;21803;53.586;10.040;2024-01-30T19:11:58;18.50;61.80
35680;DHT22;21803;53.586;10.040;2024-01-30T19:31:26;18.50;62.20
35680;DHT22;21803;53.586;10.040;2024-01-30T19:36:17;18.50;62.10
35680;DHT22;21803;53.586;10.040;2024-01-30T19:38:43;18.50;62.20
35680;DHT22;21803;53.586;10.040;2024-01-30T19:41:12;18.50;62.20
35680;DHT22;21803;53.586;10.040;2024-01-30T20:15:17;18.50;62.60
35680;DHT22;21803;53.586;10.040;2024-01-30T20:27:28;18.50;62.70
35680;DHT22;21803;53.586;10.040;2024-01-30T20:42:06;18.50;62.80
35680;DHT22;21803;53.586;10.040;2024-01-30T20:44:31;18.50;62.90
35680;DHT22;21803;53.586;10.040;2024-01-30T20:49:23;18.50;63.00
35680;DHT22;21803;53.586;10.040;2024-01-30T20:54:16;18.50;62.80
35680;DHT22;21803;53.586;10.040;2024-01-30T21:08:51;18.50;63.20
35680;DHT22;21803;53.586;10.040;2024-01-30T21:16:11;18.50;63.20
35680;DHT22;21803;53.586;10.040;2024-01-30T21:18:37;18.50;63.30
35680;DHT22;21803;53.586;10.040;2024-01-30T21:21:06;18.50;64.00
35680;DHT22;21803;53.586;10.040;2024-01-30T21:23:31;18.50;63.90
35680;DHT22;21803;53.586;10.040;2024-01-30T21:25:57;18.50;64.00
35680;DHT22;21803;53.586;10.040;2024-01-30T21:28:23;18.50;64.00
35680;DHT22;21803;53.586;10.040;2024-01-30T21:30:49;18.50;63.40
35680;DHT22;21803;53.586;10.040;2024-01-30T21:33:15;18.50;64.10
35680;DHT22;21803;53.586;10.040;2024-01-30T21:35:40;18.50;64.20
35680;DHT22;21803;53.586;10.040;2024-01-30T21:38:06;18.10;63.80
35680;DHT22;21803;53.586;10.040;2024-01-30T21:40:31;18.50;63.60
35680;DHT22;21803;53.586;10.040;2024-01-30T21:42:57;18.50;63.70
35680;DHT22;21803;53.586;10.040;2024-01-30T21:45:23;18.50;63.60
35680;DHT22;21803;53.586;10.040;2024-01-30T21:47:50;18.40;64.30
35680;DHT22;21803;53.586;10.040;2024-01-30T21:50:19;18.50;64.20
35680;DHT22;21803;53.586;10.040;2024-01-30T21:52:44;18.50;64.40
35680;DHT22;21803;53.586;10.040;2024-01-30T21:55:10;18.50;64.30
35680;DHT22;21803;53.586;10.040;2024-01-30T21:57:36;16.80;63.40
35680;DHT22;21803;53.586;10.040;2024-01-30T22:00:01;18.50;64.20
35680;DHT22;21803;53.586;10.040;2024-01-30T22:02:27;18.50;64.30
35680;DHT22;21803;53.586;10.040;2024-01-30T22:04:52;18.50;64.30
35680;DHT22;21803;53.586;10.040;2024-01-30T22:07:18;18.50;64.30
35680;DHT22;21803;53.586;10.040;2024-01-30T22:09:43;18.50;64.30